Time;durP1;ratioP1;P1;durP2;ratioP2;P2;SDS_P1;SDS_P2;PMS_P1;PMS_P2;Temp;Humidity;BMP_temperature;BMP_pressure;BME280_temperature;BME280_humidity;BME280_pressure;Samples;Min_cycle;Max_cycle;Signal;HPM_P1;HPM_P2
2023/08/20 00:01:58;;;;;;;12.70;8.82;;;;;;;24.84;60.01;99775.28;5090969;28;20045;-40
2023/08/20 00:04:26;;;;;;;12.77;9.07;;;;;;;24.57;61.40;99774.09;5091192;28;20511;-40
2023/08/20 00:06:52;;;;;;;14.95;9.10;;;;;;;24.57;60.75;99774.09;5090782;28;20161;-40
2023/08/20 00:09:17;;;;;;;10.88;8.13;;;;;;;24.70;59.37;99772.53;5075048;28;20020;-45
2023/08/20 00:11:43;;;;;;;12.25;8.25;;;;;;;24.77;57.34;99767.53;5090791;28;20759;-42
2023/08/20 00:14:15;;;;;;;10.27;8.32;;;;;;;24.86;55.66;99767.63;5090510;28;20036;-43
2023/08/20 00:16:41;;;;;;;11.38;8.07;;;;;;;24.81;55.80;99769.63;5090002;28;20024;-40
2023/08/20 00:19:07;;;;;;;9.98;7.97;;;;;;;25.04;54.74;99762.47;5088958;28;20080;-45
2023/08/20 00:21:33;;;;;;;12.90;8.00;;;;;;;24.85;55.76;99768.75;5089137;28;20391;-43
2023/08/20 00:23:59;;;;;;;9.52;7.72;;;;;;;24.87;56.23;99755.66;5089721;28;20050;-39
2023/08/20 00:26:25;;;;;;;11.85;8.10;;;;;;;24.81;57.52;99753.31;5090013;28;20436;-44
2023/08/20 00:28:50;;;;;;;11.77;8.27;;;;;;;24.75;59.94;99764.28;5090226;28;20012;-41
2023/08/20 00:31:16;;;;;;;14.93;8.15;;;;;;;24.76;59.37;99748.78;5089854;28;20024;-42
2023/08/20 00:33:41;;;;;;;10.80;8.18;;;;;;;24.71;60.11;99754.28;5089238;28;20093;-40
2023/08/20 00:36:07;;;;;;;12.05;7.75;;;;;;;24.71;58.89;99754.28;5084778;28;20208;-41
2023/08/20 00:38:32;;;;;;;10.48;8.27;;;;;;;24.71;58.44;99754.28;5086753;28;20409;-41
2023/08/20 00:40:58;;;;;;;15.43;7.32;;;;;;;24.76;58.54;99757.72;5086868;28;20158;-43
2023/08/20 00:43:24;;;;;;;13.85;7.80;;;;;;;24.76;57.29;99746.03;5089160;28;20131;-42
2023/08/20 00:45:50;;;;;;;9.57;7.63;;;;;;;24.86;57.17;99750.50;5088701;28;20115;-40
2023/08/20 00:48:17;;;;;;;10.32;7.63;;;;;;;24.74;56.67;99750.97;5089489;28;20391;-45
2023/08/20 00:50:42;;;;;;;11.48;8.15;;;;;;;24.63;55.90;99742.16;5089820;28;20044;-44
2023/08/20 00:53:11;;;;;;;11.13;8.10;;;;;;;24.75;55.74;99749.88;5089786;28;20082;-42
2023/08/20 00:55:37;;;;;;;12.02;7.93;;;;;;;24.93;54.79;99759.09;5088175;28;20060;-42
2023/08/20 00:58:03;;;;;;;12.60;7.78;;;;;;;24.84;55.42;99756.25;5089070;28;20086;-44
2023/08/20 01:00:29;;;;;;;10.13;8.10;;;;;;;24.81;55.47;99753.31;5089605;28;20024;-42
2023/08/20 01:02:54;;;;;;;11.23;8.05;;;;;;;24.58;57.55;99750.44;5090297;28;20024;-40
2023/08/20 01:05:20;;;;;;;11.93;7.72;;;;;;;24.66;56.49;99749.75;5093174;28;20020;-41
2023/08/20 01:07:57;;;;;;;11.98;8.55;;;;;;;24.81;55.06;99756.84;5085972;28;20035;-41
2023/08/20 01:10:48;;;;;;;10.77;8.18;;;;;;;24.73;53.39;99758.34;5081035;28;20028;-40
2023/08/20 01:13:15;;;;;;;10.35;7.50;;;;;;;24.73;54.70;99746.63;5093468;28;20411;-41
2023/08/20 01:15:40;;;;;;;10.82;8.23;;;;;;;24.85;53.70;99743.47;5090730;28;20032;-41
2023/08/20 01:18:06;;;;;;;10.98;7.95;;;;;;;24.92;53.18;99747.41;5086458;28;20023;-40
2023/08/20 01:20:51;;;;;;;11.30;7.93;;;;;;;24.91;52.15;99742.25;5093633;28;20032;-41
2023/08/20 01:23:44;;;;;;;11.63;8.15;;;;;;;24.90;52.72;99738.75;5067438;28;20038;-40
2023/08/20 01:26:12;;;;;;;9.52;7.43;;;;;;;24.71;52.71;99735.25;5092407;28;20031;-42
2023/08/20 01:28:39;;;;;;;10.20;7.53;;;;;;;24.65;53.01;99726.34;5089649;28;20424;-43
2023/08/20 01:31:05;;;;;;;12.38;8.68;;;;;;;24.74;53.17;99727.28;5092050;28;20480;-40
2023/08/20 01:33:31;;;;;;;15.25;7.80;;;;;;;24.87;53.34;99730.38;5092886;28;20426;-41
2023/08/20 01:35:57;;;;;;;11.55;8.02;;;;;;;24.94;51.98;99726.16;5091603;28;20039;-40
2023/08/20 01:38:22;;;;;;;12.73;7.57;;;;;;;24.90;52.31;99733.31;5091795;28;20089;-40
2023/08/20 01:40:48;;;;;;;10.80;7.60;;;;;;;24.84;51.66;99731.75;5092754;28;20032;-40
2023/08/20 01:43:14;;;;;;;8.73;7.80;;;;;;;24.84;51.32;99723.59;5103185;28;20032;-40
2023/08/20 01:45:40;;;;;;;9.68;7.95;;;;;;;24.98;51.02;99726.34;5092604;28;20532;-40
2023/08/20 01:48:06;;;;;;;11.80;7.78;;;;;;;24.89;51.71;99723.50;5092476;28;20026;-40
2023/08/20 01:50:32;;;;;;;11.10;8.27;;;;;;;24.81;52.14;99723.38;5091853;28;20451;-40
2023/08/20 01:52:58;;;;;;;10.18;8.25;;;;;;;24.77;51.08;99726.72;5092326;28;20477;-41
2023/08/20 01:55:23;;;;;;;10.10;8.35;;;;;;;24.56;51.20;99718.09;5092547;28;20118;-41
2023/08/20 01:57:49;;;;;;;10.15;7.97;;;;;;;24.66;51.12;99719.03;5092004;28;20432;-40
2023/08/20 02:00:14;;;;;;;9.93;8.30;;;;;;;24.67;50.86;99707.81;5092333;28;20063;-41
2023/08/20 02:02:40;;;;;;;10.80;7.90;;;;;;;24.66;51.23;99711.66;5092501;28;20038;-41
2023/08/20 02:05:06;;;;;;;12.68;8.18;;;;;;;24.72;50.88;99720.53;5092463;28;20413;-44
2023/08/20 02:07:31;;;;;;;10.07;8.05;;;;;;;24.80;50.80;99725.28;5092277;28;20043;-41
2023/08/20 02:09:57;;;;;;;10.70;8.43;;;;;;;24.78;50.78;99719.34;5092466;28;20031;-41
2023/08/20 02:12:22;;;;;;;10.38;8.10;;;;;;;24.89;50.03;99717.25;5092327;28;20028;-38
2023/08/20 02:14:47;;;;;;;10.18;7.55;;;;;;;25.16;49.53;99713.75;5091304;28;20074;-40
2023/08/20 02:17:14;;;;;;;12.77;8.50;;;;;;;24.88;49.63;99716.44;5091418;28;20457;-40
2023/08/20 02:19:39;;;;;;;11.18;7.68;;;;;;;24.73;50.52;99720.25;5092031;28;20461;-42
2023/08/20 02:22:05;;;;;;;10.95;7.65;;;;;;;24.80;50.34;99717.13;5092167;28;20059;-41
2023/08/20 02:24:30;;;;;;;11.07;8.27;;;;;;;24.76;49.97;99716.91;5092031;28;20034;-41
2023/08/20 02:26:56;;;;;;;10.35;7.50;;;;;;;24.83;49.83;99716.53;5091278;28;20096;-41
2023/08/20 02:29:21;;;;;;;10.90;7.90;;;;;;;24.87;49.91;99724.91;5091533;28;20047;-40
2023/08/20 02:31:47;;;;;;;10.48;7.65;;;;;;;24.80;49.80;99725.28;5091329;28;20032;-41
2023/08/20 02:34:12;;;;;;;10.07;7.60;;;;;;;25.08;48.86;99720.72;5091689;28;20022;-40
2023/08/20 02:36:37;;;;;;;16.02;8.07;;;;;;;24.88;50.85;99726.53;5091571;28;20047;-41
2023/08/20 02:39:07;;;;;;;14.43;7.70;;;;;;;24.88;50.96;99729.25;5091153;28;20065;-41
2023/08/20 02:41:35;;;;;;;9.05;7.45;;;;;;;24.87;50.26;99733.09;5091627;28;20032;-41
2023/08/20 02:44:02;;;;;;;11.77;7.77;;;;;;;24.83;50.09;99730.16;5091687;28;20042;-41
2023/08/20 02:46:27;;;;;;;9.00;7.28;;;;;;;24.91;49.81;99734.09;5091515;28;20024;-41
2023/08/20 02:48:52;;;;;;;10.35;7.40;;;;;;;24.80;50.04;99736.19;5090581;28;20061;-41
2023/08/20 02:51:18;;;;;;;8.30;6.88;;;;;;;24.84;50.00;99731.75;5089890;28;20468;-44
2023/08/20 02:53:43;;;;;;;9.90;7.05;;;;;;;24.79;50.42;99734.59;5091131;28;20074;-45
2023/08/20 02:56:09;;;;;;;10.60;7.10;;;;;;;24.80;50.02;99735.38;5088856;28;20658;-41
2023/08/20 02:58:34;;;;;;;12.48;7.20;;;;;;;25.17;48.45;99735.25;5088081;28;20566;-42
2023/08/20 03:01:00;;;;;;;10.00;7.40;;;;;;;25.12;48.24;99729.09;5091303;28;20024;-43
2023/08/20 03:03:25;;;;;;;11.43;7.43;;;;;;;25.06;49.55;99743.91;5102366;28;20020;-40
2023/08/20 03:05:51;;;;;;;8.30;7.35;;;;;;;24.78;51.83;99732.94;5091078;28;20065;-39
2023/08/20 03:08:16;;;;;;;13.10;7.68;;;;;;;24.63;52.88;99741.38;5093790;28;20035;-40
2023/08/20 03:10:41;;;;;;;12.27;8.02;;;;;;;24.28;54.30;99733.44;5092423;28;20016;-42
2023/08/20 03:13:07;;;;;;;10.68;7.60;;;;;;;24.31;54.24;99729.31;5087536;28;20025;-42
2023/08/20 03:15:32;;;;;;;9.48;7.50;;;;;;;24.37;53.27;99739.03;5090558;28;20024;-43
2023/08/20 03:17:58;;;;;;;11.27;7.63;;;;;;;24.61;53.18;99744.38;5086206;28;20029;-43
2023/08/20 03:20:23;;;;;;;10.77;8.00;;;;;;;24.34;54.29;99736.91;5081737;28;20102;-41
2023/08/20 03:22:48;;;;;;;11.82;7.88;;;;;;;24.20;54.25;99740.34;5088079;28;20031;-42
2023/08/20 03:25:14;;;;;;;9.32;6.78;;;;;;;24.29;53.23;99732.31;5090381;28;20024;-39
2023/08/20 03:27:40;;;;;;;8.65;6.97;;;;;;;24.33;52.69;99730.66;5089899;28;20031;-43
2023/08/20 03:30:06;;;;;;;9.52;6.63;;;;;;;24.33;52.95;99738.81;5090254;28;20032;-42
2023/08/20 03:32:32;;;;;;;9.65;6.80;;;;;;;24.38;51.98;99737.91;5090528;28;20140;-44
2023/08/20 03:34:58;;;;;;;9.80;6.40;;;;;;;24.31;52.36;99737.47;5090334;28;20040;-43
2023/08/20 03:37:25;;;;;;;9.05;6.43;;;;;;;24.48;51.70;99740.47;5087559;28;20036;-42
2023/08/20 03:39:50;;;;;;;9.68;6.78;;;;;;;24.70;51.16;99748.03;5084701;28;20147;-43
2023/08/20 03:42:15;;;;;;;9.43;6.70;;;;;;;24.47;51.80;99740.78;5085124;28;20032;-40
2023/08/20 03:44:41;;;;;;;8.20;6.88;;;;;;;24.19;52.75;99735.22;5090735;28;20024;-42
2023/08/20 03:47:06;;;;;;;8.55;6.82;;;;;;;24.29;52.89;99724.16;5090565;28;20383;-42
2023/08/20 03:49:32;;;;;;;9.02;6.30;;;;;;;24.59;51.43;99728.34;5090443;28;20024;-40
2023/08/20 03:51:57;;;;;;;8.52;6.57;;;;;;;24.68;51.39;99738.56;5090517;28;20032;-39
2023/08/20 03:54:23;;;;;;;9.90;7.07;;;;;;;24.71;51.84;99735.25;5090173;28;20097;-43
2023/08/20 03:56:48;;;;;;;9.13;7.10;;;;;;;24.62;52.19;99737.84;5090336;28;20039;-43
2023/08/20 03:59:13;;;;;;;10.23;6.78;;;;;;;24.36;52.78;99735.50;5090353;28;20028;-41
2023/08/20 04:01:39;;;;;;;8.15;7.18;;;;;;;24.55;52.27;99738.22;5090437;28;20050;-42
2023/08/20 04:04:04;;;;;;;9.00;7.15;;;;;;;24.22;53.12;99742.78;5090063;28;20547;-44
2023/08/20 04:06:30;;;;;;;12.82;7.30;;;;;;;24.13;53.24;99742.63;5090370;28;20488;-43
2023/08/20 04:08:55;;;;;;;9.35;7.30;;;;;;;24.23;53.69;99751.75;5090152;28;20016;-42
2023/08/20 04:11:21;;;;;;;11.65;7.72;;;;;;;24.19;54.10;99746.88;5090242;28;20650;-42
2023/08/20 04:13:46;;;;;;;11.18;7.20;;;;;;;24.27;53.44;99741.88;5089957;28;20023;-42
2023/08/20 04:16:13;;;;;;;10.65;6.78;;;;;;;24.53;51.96;99745.88;5090229;28;20096;-42
2023/08/20 04:18:39;;;;;;;11.13;6.85;;;;;;;24.59;51.89;99747.41;5089910;28;20024;-43
2023/08/20 04:21:04;;;;;;;9.82;6.10;;;;;;;24.61;51.04;99747.09;5089474;28;20408;-44
2023/08/20 04:23:29;;;;;;;8.00;6.00;;;;;;;24.87;50.36;99754.84;5089982;28;20077;-42
2023/08/20 04:25:55;;;;;;;7.47;6.13;;;;;;;25.62;48.16;99745.56;5089938;28;20027;-43
2023/08/20 04:28:20;;;;;;;9.57;6.07;;;;;;;26.00;47.50;99750.78;5090002;28;20395;-44
2023/08/20 04:30:46;;;;;;;8.75;5.55;;;;;;;26.18;46.89;99745.50;5089894;28;20364;-44
2023/08/20 04:33:11;;;;;;;11.23;6.45;;;;;;;26.26;47.06;99758.41;5089808;28;20460;-43
2023/08/20 04:35:36;;;;;;;8.10;6.47;;;;;;;26.28;47.44;99753.47;5089095;28;20035;-45
2023/08/20 04:38:02;;;;;;;11.10;6.57;;;;;;;26.39;47.53;99759.47;5089347;28;20019;-44
2023/08/20 04:40:28;;;;;;;14.10;6.68;;;;;;;26.42;47.32;99753.41;5089396;28;20028;-44
2023/08/20 04:42:53;;;;;;;12.40;7.05;;;;;;;26.52;47.20;99755.88;5089675;28;20047;-43
2023/08/20 04:45:19;;;;;;;8.60;6.47;;;;;;;26.62;47.43;99758.41;5089490;28;20026;-45
2023/08/20 04:47:46;;;;;;;10.63;6.95;;;;;;;26.64;47.35;99758.09;5089813;28;20020;-43
2023/08/20 04:50:11;;;;;;;11.65;6.68;;;;;;;26.65;47.52;99760.50;5089825;28;20111;-45
2023/08/20 04:52:37;;;;;;;10.85;6.25;;;;;;;26.67;47.12;99755.56;5089663;28;20128;-42
2023/08/20 04:55:02;;;;;;;8.30;6.30;;;;;;;26.77;47.10;99759.97;5089600;28;20038;-43
2023/08/20 04:57:28;;;;;;;10.63;5.82;;;;;;;26.48;46.89;99761.19;5089033;28;20399;-43
2023/08/20 04:59:53;;;;;;;9.50;6.00;;;;;;;26.58;46.81;99740.19;5089028;28;20032;-43
2023/08/20 05:02:19;;;;;;;7.03;5.63;;;;;;;26.82;46.65;99759.00;5088965;28;20024;-41
2023/08/20 05:04:45;;;;;;;7.15;5.78;;;;;;;26.87;45.87;99759.69;5088816;28;20030;-45
2023/08/20 05:07:10;;;;;;;7.55;5.78;;;;;;;26.90;45.53;99760.97;5089536;28;20028;-42
2023/08/20 05:09:35;;;;;;;7.40;5.60;;;;;;;26.95;45.42;99760.88;5089332;28;20039;-43
2023/08/20 05:12:02;;;;;;;8.63;6.20;;;;;;;27.04;45.29;99761.72;5089143;28;20024;-44
2023/08/20 05:14:27;;;;;;;7.00;5.57;;;;;;;27.08;46.09;99762.69;5089508;28;20020;-43
2023/08/20 05:16:53;;;;;;;7.75;5.65;;;;;;;27.23;46.14;99763.44;5089350;28;20036;-44
2023/08/20 05:19:18;;;;;;;11.48;5.78;;;;;;;27.28;45.82;99783.25;5089476;28;20024;-43
2023/08/20 05:21:44;;;;;;;10.70;5.93;;;;;;;27.18;45.18;99779.94;5089129;28;20036;-43
2023/08/20 05:24:09;;;;;;;7.80;5.43;;;;;;;26.92;44.88;99781.41;5089203;28;20478;-43
2023/08/20 05:26:35;;;;;;;8.57;5.93;;;;;;;27.23;44.05;99783.34;5089302;28;20043;-43
2023/08/20 05:29:00;;;;;;;7.25;6.22;;;;;;;27.35;43.66;99788.25;5089179;28;20023;-43
2023/08/20 05:31:25;;;;;;;9.18;5.85;;;;;;;27.19;43.97;99785.09;5088619;28;20028;-47
2023/08/20 05:33:51;;;;;;;9.38;6.50;;;;;;;26.85;44.32;99780.25;5088673;28;20099;-43
2023/08/20 05:36:16;;;;;;;11.93;6.95;;;;;;;26.92;44.40;99789.59;5089487;28;20032;-44
2023/08/20 05:38:42;;;;;;;12.68;8.57;;;;;;;27.04;44.42;99783.56;5088752;28;20048;-45
2023/08/20 05:41:08;;;;;;;12.07;7.15;;;;;;;27.22;44.00;99792.66;5089045;28;20028;-43
2023/08/20 05:43:33;;;;;;;33.00;24.70;;;;;;;27.43;43.64;99790.19;5088996;28;20154;-43
2023/08/20 05:45:59;;;;;;;40.72;32.13;;;;;;;27.38;44.03;99795.81;5088916;28;20470;-43
2023/08/20 05:48:24;;;;;;;10.93;7.75;;;;;;;27.52;43.63;99787.50;5091277;28;20670;-43
2023/08/20 05:50:50;;;;;;;10.02;6.85;;;;;;;27.73;43.13;99789.69;5092854;28;20142;-47
2023/08/20 05:53:15;;;;;;;9.45;6.35;;;;;;;27.69;43.49;99787.56;5092813;28;20020;-44
2023/08/20 05:55:40;;;;;;;12.57;7.25;;;;;;;27.78;43.41;99792.25;5092486;28;20081;-43
2023/08/20 05:58:06;;;;;;;8.25;6.70;;;;;;;28.12;43.03;99788.00;5092732;28;20024;-43
2023/08/20 06:00:31;;;;;;;10.43;6.80;;;;;;;28.30;42.26;99786.91;5092656;28;20013;-44
2023/08/20 06:02:57;;;;;;;10.27;6.82;;;;;;;28.47;42.23;99794.31;5092561;28;20388;-43
2023/08/20 06:05:22;;;;;;;12.40;6.50;;;;;;;28.65;42.09;99792.41;5092794;28;20103;-41
2023/08/20 06:07:47;;;;;;;19.98;14.50;;;;;;;28.88;41.16;99794.94;5092469;28;20020;-42
2023/08/20 06:10:13;;;;;;;23.27;15.80;;;;;;;29.12;41.19;99788.94;5073423;28;20016;-44
2023/08/20 06:12:38;;;;;;;13.88;8.30;;;;;;;29.17;40.83;99800.56;5092057;28;20427;-42
2023/08/20 06:15:05;;;;;;;8.48;6.65;;;;;;;28.91;41.17;99791.56;5090265;28;20036;-43
2023/08/20 06:17:31;;;;;;;8.57;6.35;;;;;;;28.78;41.57;99793.38;5092196;28;20028;-44
2023/08/20 06:19:56;;;;;;;8.30;6.65;;;;;;;28.88;41.33;99787.53;5091914;28;20024;-42
2023/08/20 06:22:21;;;;;;;8.73;6.57;;;;;;;29.36;40.30;99797.44;5091982;28;20024;-44
2023/08/20 06:24:47;;;;;;;13.05;6.82;;;;;;;29.53;40.02;99796.56;5091735;28;20027;-44
2023/08/20 06:27:12;;;;;;;10.27;6.20;;;;;;;29.73;40.11;99802.47;5092269;28;20024;-44
2023/08/20 06:29:38;;;;;;;12.13;6.28;;;;;;;30.02;39.51;99802.47;5092081;28;20071;-41
2023/08/20 06:32:04;;;;;;;11.27;6.45;;;;;;;29.21;40.32;99800.72;5091839;28;20030;-45
2023/08/20 06:34:29;;;;;;;7.72;5.80;;;;;;;28.92;41.21;99801.38;5091965;28;20411;-44
2023/08/20 06:36:55;;;;;;;9.80;6.25;;;;;;;28.76;41.29;99807.38;5092204;28;20708;-41
2023/08/20 06:39:20;;;;;;;10.02;5.75;;;;;;;28.74;41.75;99803.34;5091635;28;20465;-44
2023/08/20 06:41:46;;;;;;;7.78;6.00;;;;;;;28.70;41.75;99803.19;5091734;28;20104;-43
2023/08/20 06:44:11;;;;;;;10.30;6.55;;;;;;;28.83;41.04;99809.63;5091131;28;20044;-46
2023/08/20 06:46:37;;;;;;;9.75;6.35;;;;;;;29.00;41.56;99811.53;5091613;28;20070;-45
2023/08/20 06:49:03;;;;;;;9.23;6.90;;;;;;;29.15;40.56;99813.78;5091605;28;20020;-44
2023/08/20 06:51:28;;;;;;;9.30;6.50;;;;;;;29.45;40.14;99819.31;5091140;28;20460;-42
2023/08/20 06:53:55;;;;;;;10.27;6.80;;;;;;;29.47;40.09;99816.25;5091021;28;20028;-43
2023/08/20 06:56:20;;;;;;;8.45;6.05;;;;;;;29.59;39.73;99816.38;5091741;28;20027;-43
2023/08/20 06:58:46;;;;;;;10.18;6.68;;;;;;;29.49;40.58;99809.28;5090820;28;20028;-43
2023/08/20 07:01:12;;;;;;;8.13;6.22;;;;;;;29.51;40.24;99812.53;5090993;28;20028;-42
2023/08/20 07:03:42;;;;;;;8.77;6.30;;;;;;;29.74;39.34;99815.84;5091487;28;20468;-45
2023/08/20 07:06:11;;;;;;;8.65;6.40;;;;;;;29.79;39.38;99810.16;5091424;28;20031;-42
2023/08/20 07:08:40;;;;;;;9.30;6.40;;;;;;;29.67;39.80;99814.72;5091506;28;20024;-43
2023/08/20 07:11:06;;;;;;;7.55;6.35;;;;;;;29.96;39.90;99816.69;5091408;28;20027;-43
2023/08/20 07:13:32;;;;;;;9.15;6.25;;;;;;;30.15;39.41;99811.56;5091334;28;20024;-42
2023/08/20 07:15:57;;;;;;;8.68;6.78;;;;;;;30.56;38.71;99806.47;5090783;28;20036;-42
2023/08/20 07:18:23;;;;;;;8.57;6.07;;;;;;;31.09;37.35;99804.00;5091352;28;20022;-44
2023/08/20 07:20:50;;;;;;;9.70;6.70;;;;;;;31.32;36.80;99807.97;5091240;28;20024;-41
2023/08/20 07:23:16;;;;;;;8.98;6.40;;;;;;;31.70;36.19;99806.06;5091169;28;20034;-43
2023/08/20 07:25:41;;;;;;;9.07;6.50;;;;;;;31.84;35.57;99803.75;5091115;28;20110;-46
2023/08/20 07:28:08;;;;;;;7.53;6.50;;;;;;;31.91;35.80;99804.00;5090353;28;20024;-42
2023/08/20 07:30:34;;;;;;;10.88;6.70;;;;;;;31.99;35.65;99805.00;5090649;28;20115;-41
2023/08/20 07:33:00;;;;;;;9.18;6.47;;;;;;;32.20;35.48;99802.13;5091102;28;20032;-44
2023/08/20 07:35:26;;;;;;;6.90;6.20;;;;;;;32.63;34.88;99806.13;5089109;28;20051;-41
2023/08/20 07:37:52;;;;;;;9.43;6.30;;;;;;;32.56;35.27;99807.88;5091037;28;20468;-41
2023/08/20 07:40:17;;;;;;;7.13;6.22;;;;;;;32.90;34.32;99804.53;5070755;28;20044;-44
2023/08/20 07:42:43;;;;;;;8.98;6.18;;;;;;;32.94;33.99;99804.63;5070538;28;20076;-41
2023/08/20 07:45:09;;;;;;;8.27;6.80;;;;;;;33.41;33.28;99803.09;5070776;28;20101;-45
2023/08/20 07:47:38;;;;;;;7.43;6.30;;;;;;;33.60;33.05;99803.16;5068798;28;20126;-41
2023/08/20 07:50:05;;;;;;;9.63;6.13;;;;;;;33.85;32.88;99802.97;5070271;28;20017;-42
2023/08/20 07:52:33;;;;;;;9.60;6.50;;;;;;;34.12;31.81;99797.66;5070616;28;20024;-42
2023/08/20 07:54:59;;;;;;;;;;;;;;;34.32;31.79;99802.06;5061798;28;20020;-40
2023/08/20 07:57:24;;;;;;;6.95;5.60;;;;;;;34.62;30.84;99801.50;5050494;28;19916;-43
2023/08/20 07:59:50;;;;;;;7.53;5.53;;;;;;;34.90;29.51;99798.53;5056097;28;20032;-41
2023/08/20 08:02:16;;;;;;;9.35;5.75;;;;;;;34.66;30.33;99796.84;5067220;28;20028;-42
2023/08/20 08:04:42;;;;;;;10.45;6.00;;;;;;;35.00;30.24;99797.13;5050778;28;20020;-42
2023/08/20 08:07:08;;;;;;;6.80;5.43;;;;;;;35.04;29.82;99786.91;5052570;28;20100;-44
2023/08/20 08:09:33;;;;;;;7.68;5.50;;;;;;;35.04;30.49;99792.44;5066282;28;20104;-42
2023/08/20 08:11:59;;;;;;;7.55;5.53;;;;;;;35.18;29.55;99783.63;5068895;28;20107;-42
2023/08/20 08:14:25;;;;;;;8.20;5.68;;;;;;;35.43;28.81;99781.25;5070078;28;20048;-44
2023/08/20 08:16:50;;;;;;;7.53;5.93;;;;;;;35.45;29.17;99784.44;5063831;28;20373;-43
2023/08/20 08:19:17;;;;;;;6.60;5.40;;;;;;;35.55;28.79;99788.59;5067134;28;20040;-42
2023/08/20 08:21:43;;;;;;;8.23;5.07;;;;;;;35.70;28.89;99793.19;5069870;28;20162;-43
2023/08/20 08:24:09;;;;;;;5.10;4.55;;;;;;;35.82;28.17;99781.88;5070001;28;20032;-43
2023/08/20 08:26:35;;;;;;;6.07;5.00;;;;;;;36.13;27.67;99779.16;5069894;28;20035;-43
2023/08/20 08:29:04;;;;;;;5.95;4.70;;;;;;;36.17;27.75;99777.25;5069694;28;20125;-42
2023/08/20 08:31:30;;;;;;;7.20;5.18;;;;;;;36.11;27.94;99765.66;5063515;28;20107;-44
2023/08/20 08:33:56;;;;;;;6.82;4.65;;;;;;;36.52;27.04;99776.06;5054374;28;20112;-43
2023/08/20 08:36:21;;;;;;;5.82;4.68;;;;;;;36.60;27.17;99770.25;5060802;28;20086;-42
2023/08/20 08:38:47;;;;;;;8.00;4.72;;;;;;;36.43;27.63;99773.63;5074856;28;20067;-45
2023/08/20 08:41:13;;;;;;;5.78;4.85;;;;;;;36.63;26.87;99767.88;5088589;28;20534;-42
2023/08/20 08:43:39;;;;;;;5.57;5.00;;;;;;;36.76;26.44;99772.81;5087638;28;20028;-43
2023/08/20 08:46:14;;;;;;;5.05;4.53;;;;;;;36.57;27.46;99770.19;5087960;28;20503;-45
2023/08/20 08:48:42;;;;;;;7.43;4.85;;;;;;;36.96;26.52;99767.06;5087363;28;20462;-43
2023/08/20 08:51:07;;;;;;;7.45;5.03;;;;;;;36.83;26.46;99768.53;5079882;28;20099;-47
2023/08/20 08:53:34;;;;;;;5.85;4.70;;;;;;;36.93;26.62;99774.16;5079330;28;20071;-43
2023/08/20 08:56:00;;;;;;;6.32;4.78;;;;;;;36.73;26.87;99775.56;5084507;28;20028;-47
2023/08/20 08:58:26;;;;;;;4.97;4.47;;;;;;;36.89;26.33;99772.53;5089494;28;20027;-44
2023/08/20 09:00:52;;;;;;;6.53;5.47;;;;;;;36.70;25.40;99770.75;5088051;28;20059;-46
2023/08/20 09:03:17;;;;;;;7.18;4.97;;;;;;;36.29;26.10;99768.72;5086367;28;20082;-47
2023/08/20 09:05:53;;;;;;;5.53;4.35;;;;;;;35.89;26.35;99766.56;5084093;28;20059;-44
2023/08/20 09:08:26;;;;;;;5.40;4.32;;;;;;;36.13;26.04;99768.84;5087395;28;20024;-44
2023/08/20 09:10:52;;;;;;;8.98;4.60;;;;;;;36.11;26.16;99771.19;5089384;28;20025;-45
2023/08/20 09:13:23;;;;;;;5.43;4.78;;;;;;;36.16;26.59;99765.34;5088772;28;20367;-43
2023/08/20 09:15:51;;;;;;;4.63;4.20;;;;;;;36.22;26.88;99754.75;5088576;28;20377;-43
2023/08/20 09:18:17;;;;;;;;;;;;;;;36.27;26.09;99759.16;5088823;28;20371;-46
2023/08/20 09:20:42;;;;;;;7.43;4.70;;;;;;;36.07;25.97;99752.97;5089807;28;19908;-44
2023/08/20 09:23:14;;;;;;;5.05;4.10;;;;;;;36.12;25.96;99747.91;5091199;28;20028;-43
2023/08/20 09:25:41;;;;;;;5.00;4.47;;;;;;;36.32;25.96;99756.06;5093324;28;20031;-44
2023/08/20 09:28:07;;;;;;;5.35;4.25;;;;;;;36.55;25.75;99748.41;5093485;28;20114;-44
2023/08/20 09:30:34;;;;;;;4.75;4.22;;;;;;;36.75;25.90;99746.28;5093501;28;20478;-43
2023/08/20 09:33:13;;;;;;;6.35;5.70;;;;;;;37.11;25.17;99746.59;5092337;28;20075;-44
2023/08/20 09:35:48;;;;;;;6.63;4.68;;;;;;;37.28;25.14;99738.81;5091853;28;20074;-44
2023/08/20 09:38:13;;;;;;;6.15;5.53;;;;;;;37.43;24.55;99736.94;5091388;28;20063;-47
2023/08/20 09:40:39;;;;;;;7.63;4.40;;;;;;;37.53;24.56;99734.25;5092490;28;20105;-45
2023/08/20 09:43:08;;;;;;;5.40;4.30;;;;;;;37.40;24.89;99735.75;5093011;28;20036;-45
2023/08/20 09:45:37;;;;;;;4.75;4.03;;;;;;;37.49;24.95;99729.84;5103730;28;20154;-45
2023/08/20 09:48:07;;;;;;;5.15;4.18;;;;;;;37.43;24.86;99729.41;5092846;28;20098;-44
2023/08/20 09:50:36;;;;;;;4.78;4.13;;;;;;;37.44;24.29;99722.69;5092644;28;20023;-45
2023/08/20 09:53:20;;;;;;;6.70;4.03;;;;;;;37.42;24.37;99722.28;5092653;28;20475;-47
2023/08/20 09:55:47;;;;;;;6.72;4.55;;;;;;;37.43;24.47;99714.75;5091591;28;20081;-41
2023/08/20 09:58:13;;;;;;;4.90;4.32;;;;;;;37.94;24.19;99717.44;5092889;28;20479;-43
2023/08/20 10:00:39;;;;;;;4.90;4.40;;;;;;;38.22;23.30;99718.78;5092626;28;20028;-41
2023/08/20 10:03:04;;;;;;;6.22;4.45;;;;;;;38.87;23.14;99707.81;5092289;28;20023;-43
2023/08/20 10:05:31;;;;;;;6.55;4.30;;;;;;;38.82;22.96;99713.75;5091990;28;20042;-42
2023/08/20 10:07:58;;;;;;;7.20;4.22;;;;;;;38.75;23.39;99710.97;5091696;28;20460;-46
2023/08/20 10:10:25;;;;;;;4.80;4.30;;;;;;;39.03;23.18;99710.22;5091838;28;20032;-44
2023/08/20 10:12:51;;;;;;;6.78;4.30;;;;;;;39.31;22.63;99709.41;5092251;28;20285;-44
2023/08/20 10:15:17;;;;;;;6.30;4.38;;;;;;;39.26;23.26;99707.81;5092567;28;20028;-45
2023/08/20 10:17:44;;;;;;;5.03;4.40;;;;;;;39.13;23.24;99705.81;5092546;28;20020;-44
2023/08/20 10:20:13;;;;;;;8.45;3.92;;;;;;;39.60;22.71;99709.34;5092099;28;20028;-44
2023/08/20 10:22:44;;;;;;;4.97;3.88;;;;;;;39.70;22.38;99697.41;5091938;28;20036;-44
2023/08/20 10:25:11;;;;;;;6.75;4.10;;;;;;;39.48;22.26;99693.88;5088921;28;20020;-45
2023/08/20 10:27:44;;;;;;;5.30;3.70;;;;;;;39.40;22.11;99686.72;5091447;28;20031;-44
2023/08/20 10:30:16;;;;;;;5.18;4.25;;;;;;;39.18;22.38;99667.28;5092386;28;20142;-45
2023/08/20 10:32:52;;;;;;;4.50;3.90;;;;;;;39.33;21.86;99689.53;5093314;28;20031;-43
2023/08/20 10:35:28;;;;;;;6.68;4.28;;;;;;;38.59;22.43;99687.13;5101831;28;20062;-42
2023/08/20 10:38:03;;;;;;;5.88;4.35;;;;;;;38.03;23.38;99688.53;5112444;28;20028;-42
2023/08/20 10:40:47;;;;;;;5.70;4.20;;;;;;;37.05;24.29;99680.78;5104263;28;20108;-44
2023/08/20 10:43:29;;;;;;;7.13;4.28;;;;;;;36.97;24.20;99683.47;5092031;28;20039;-45
2023/08/20 10:46:03;;;;;;;4.95;4.15;;;;;;;37.00;24.82;99678.38;5093078;28;20050;-45
2023/08/20 10:48:30;;;;;;;6.20;3.97;;;;;;;37.44;24.57;99669.97;5091904;28;20035;-44
2023/08/20 10:50:56;;;;;;;5.10;3.83;;;;;;;37.85;23.80;99678.16;5091642;28;20020;-44
2023/08/20 10:53:24;;;;;;;4.78;4.15;;;;;;;38.07;23.52;99672.66;5095475;28;20024;-43
2023/08/20 10:55:51;;;;;;;5.93;4.20;;;;;;;38.00;23.54;99665.09;5081877;28;20555;-42
2023/08/20 10:58:17;;;;;;;4.57;4.18;;;;;;;38.70;22.66;99665.69;5091988;28;20067;-42
2023/08/20 11:00:42;;;;;;;7.28;3.95;;;;;;;38.52;22.97;99664.88;5084936;28;20121;-42
2023/08/20 11:03:08;;;;;;;4.82;4.20;;;;;;;38.20;22.87;99662.81;5088081;28;20085;-44
2023/08/20 11:05:34;;;;;;;5.00;3.88;;;;;;;38.01;23.34;99663.94;5085513;28;20104;-44
2023/08/20 11:08:00;;;;;;;5.40;3.90;;;;;;;37.96;23.50;99658.75;5085921;28;20425;-43
2023/08/20 11:10:26;;;;;;;4.57;3.80;;;;;;;37.91;23.47;99659.16;5073152;28;20024;-40
2023/08/20 11:12:51;;;;;;;4.50;3.78;;;;;;;38.26;23.10;99646.56;5088742;28;20024;-44
2023/08/20 11:15:17;;;;;;;4.30;3.80;;;;;;;37.98;23.19;99650.03;5088741;28;20517;-46
2023/08/20 11:17:47;;;;;;;4.97;3.88;;;;;;;38.20;23.72;99648.94;5091566;28;20034;-45
2023/08/20 11:20:16;;;;;;;5.10;4.00;;;;;;;37.85;23.67;99653.16;5097232;28;20030;-46
2023/08/20 11:22:42;;;;;;;6.97;3.92;;;;;;;38.11;23.01;99637.41;5089317;28;20420;-45
2023/08/20 11:25:15;;;;;;;4.78;3.97;;;;;;;37.90;22.81;99638.88;5090555;28;20066;-43
2023/08/20 11:27:42;;;;;;;5.80;4.10;;;;;;;37.97;23.59;99640.09;5089637;28;20028;-45
2023/08/20 11:30:09;;;;;;;6.18;4.10;;;;;;;37.81;23.09;99638.47;5083254;28;20099;-45